Time;durP1;ratioP1;P1;durP2;ratioP2;P2;SDS_P1;SDS_P2;PMS_P1;PMS_P2;Temp;Humidity;BMP_temperature;BMP_pressure;BME280_temperature;BME280_humidity;BME280_pressure;Samples;Min_cycle;Max_cycle;Signal;HPM_P1;HPM_P2
2023/07/28 00:01:30;;;;;;;10.45;2.00;;;17.80;99.90;;;;;;4997755;28;20046;-68
2023/07/28 00:03:57;;;;;;;2.83;1.70;;;17.80;99.90;;;;;;4997792;28;20057;-68
2023/07/28 00:06:23;;;;;;;2.97;1.60;;;17.80;99.90;;;;;;4997532;28;20026;-68
2023/07/28 00:08:48;;;;;;;5.65;1.70;;;17.80;99.90;;;;;;4997245;28;20094;-68
2023/07/28 00:11:15;;;;;;;2.20;1.27;;;17.70;99.90;;;;;;4997383;28;20022;-68
2023/07/28 00:13:42;;;;;;;3.55;1.90;;;17.70;99.90;;;;;;4998310;28;20030;-68
2023/07/28 00:16:08;;;;;;;2.60;1.52;;;17.70;99.90;;;;;;4997353;28;20022;-68
2023/07/28 00:18:34;;;;;;;3.75;1.70;;;17.60;99.90;;;;;;4998358;28;20026;-68
2023/07/28 00:21:00;;;;;;;3.13;1.35;;;17.60;99.90;;;;;;4997018;28;20030;-68
2023/07/28 00:23:25;;;;;;;7.28;1.92;;;17.50;99.90;;;;;;4997078;28;20113;-68
2023/07/28 00:25:51;;;;;;;2.75;1.75;;;17.60;99.90;;;;;;4997033;28;20104;-68
2023/07/28 00:28:17;;;;;;;3.15;1.50;;;17.50;99.90;;;;;;4996952;28;20026;-68
2023/07/28 00:30:42;;;;;;;2.20;1.33;;;17.50;99.90;;;;;;4996933;28;20027;-68
2023/07/28 00:33:08;;;;;;;3.72;1.90;;;17.50;99.90;;;;;;4996781;28;20023;-68
2023/07/28 00:35:33;;;;;;;4.03;2.17;;;17.50;99.90;;;;;;4996933;28;20019;-68
2023/07/28 00:37:59;;;;;;;5.13;1.70;;;17.40;99.90;;;;;;4997504;28;20030;-68
2023/07/28 00:40:24;;;;;;;2.35;1.48;;;17.40;99.90;;;;;;4996843;28;20026;-68
2023/07/28 00:42:50;;;;;;;4.55;1.40;;;17.40;99.90;;;;;;4996749;28;20022;-68
2023/07/28 00:45:16;;;;;;;2.22;1.13;;;17.40;99.90;;;;;;4997071;28;20034;-68
2023/07/28 00:47:42;;;;;;;2.08;1.23;;;17.30;99.90;;;;;;4997601;28;20030;-68
2023/07/28 00:50:11;;;;;;;2.03;1.42;;;17.30;99.90;;;;;;4997796;28;20034;-68
2023/07/28 00:52:37;;;;;;;4.53;1.38;;;17.30;99.90;;;;;;4997521;28;20061;-68
2023/07/28 00:55:02;;;;;;;3.55;1.27;;;17.20;99.90;;;;;;4996697;28;20026;-68
2023/07/28 00:57:28;;;;;;;2.47;1.17;;;17.20;99.90;;;;;;4996557;28;20023;-68
2023/07/28 00:59:54;;;;;;;1.77;1.00;;;17.20;99.90;;;;;;4996711;28;20018;-68
2023/07/28 01:02:20;;;;;;;1.67;1.20;;;17.10;99.90;;;;;;4996648;28;20022;-68
2023/07/28 01:04:46;;;;;;;2.67;1.25;;;17.10;99.90;;;;;;4996557;28;20038;-68
2023/07/28 01:07:29;;;;;;;2.20;1.20;;;17.10;99.90;;;;;;4996561;28;20080;-68
2023/07/28 01:10:10;;;;;;;4.03;1.33;;;17.10;99.90;;;;;;4996458;28;20026;-68
2023/07/28 01:12:35;;;;;;;2.17;1.08;;;17.10;99.90;;;;;;4997531;28;20030;-68
2023/07/28 01:15:01;;;;;;;2.45;1.30;;;17.10;99.90;;;;;;4997259;28;20049;-68
2023/07/28 01:17:27;;;;;;;3.90;1.35;;;17.10;99.90;;;;;;4997088;28;20027;-68
2023/07/28 01:19:53;;;;;;;2.20;1.15;;;17.10;99.90;;;;;;4996485;28;20026;-68
2023/07/28 01:22:24;;;;;;;4.53;1.40;;;17.10;99.90;;;;;;4996414;28;20116;-68
2023/07/28 01:25:25;;;;;;;2.25;0.95;;;17.10;99.90;;;;;;4996338;28;20027;-68
2023/07/28 01:27:52;;;;;;;2.70;1.30;;;17.20;99.90;;;;;;4963471;28;20042;-68
2023/07/28 01:30:19;;;;;;;2.25;1.38;;;17.10;99.90;;;;;;4996939;28;20027;-68
2023/07/28 01:32:45;;;;;;;6.00;1.05;;;17.20;99.90;;;;;;4996270;28;20034;-68
2023/07/28 01:35:10;;;;;;;2.10;1.45;;;17.10;99.90;;;;;;4996405;28;20031;-68
2023/07/28 01:37:36;;;;;;;3.38;1.50;;;17.20;99.90;;;;;;4996598;28;20027;-68
2023/07/28 01:40:02;;;;;;;3.45;1.70;;;17.10;99.90;;;;;;4996480;28;20046;-68
2023/07/28 01:42:27;;;;;;;2.42;1.50;;;17.10;99.90;;;;;;4996529;28;20019;-68
2023/07/28 01:44:53;;;;;;;2.97;1.50;;;17.10;99.90;;;;;;4996358;28;20022;-68
2023/07/28 01:47:18;;;;;;;3.15;1.23;;;17.20;99.90;;;;;;4997265;28;20026;-68
2023/07/28 01:49:44;;;;;;;4.18;1.50;;;17.20;99.90;;;;;;4999031;28;20019;-68
2023/07/28 01:52:09;;;;;;;4.32;1.75;;;17.10;99.90;;;;;;4999880;28;20033;-68
2023/07/28 01:54:34;;;;;;;1.83;1.38;;;17.20;99.90;;;;;;5000366;28;20061;-68
2023/07/28 01:57:00;;;;;;;1.95;1.30;;;17.10;99.90;;;;;;5000454;28;20027;-68
2023/07/28 01:59:25;;;;;;;1.80;1.30;;;17.10;99.90;;;;;;5000663;28;20026;-68
2023/07/28 02:01:51;;;;;;;4.45;1.50;;;17.10;99.90;;;;;;5000526;28;20029;-68
2023/07/28 02:04:16;;;;;;;3.33;1.63;;;17.10;99.90;;;;;;5000374;28;20026;-68
2023/07/28 02:06:42;;;;;;;3.78;1.83;;;17.10;99.90;;;;;;4999564;28;20034;-68
2023/07/28 02:09:08;;;;;;;6.35;1.88;;;17.10;99.90;;;;;;5000594;28;20054;-68
2023/07/28 02:11:33;;;;;;;2.47;1.13;;;17.10;99.90;;;;;;4999817;28;20030;-68
2023/07/28 02:13:59;;;;;;;2.55;1.60;;;17.10;99.90;;;;;;4999422;28;20030;-68
2023/07/28 02:16:27;;;;;;;2.38;1.23;;;17.10;99.90;;;;;;4999437;28;20032;-68
2023/07/28 02:18:53;;;;;;;1.88;1.35;;;17.20;99.90;;;;;;4999539;28;20023;-68
2023/07/28 02:21:19;;;;;;;1.48;1.05;;;17.20;99.90;;;;;;4999222;28;20023;-68
2023/07/28 02:23:44;;;;;;;1.55;1.17;;;17.20;99.90;;;;;;4999326;28;20029;-68
2023/07/28 02:26:10;;;;;;;2.28;0.80;;;17.20;99.90;;;;;;5000631;28;20027;-68
2023/07/28 02:28:35;;;;;;;1.30;1.00;;;17.30;99.90;;;;;;4999500;28;20057;-68
2023/07/28 02:31:01;;;;;;;2.92;1.23;;;17.30;99.90;;;;;;5000016;28;20022;-68
2023/07/28 02:33:29;;;;;;;1.58;1.15;;;17.30;99.90;;;;;;4999300;28;20034;-68
2023/07/28 02:35:55;;;;;;;1.95;1.13;;;17.30;99.90;;;;;;4999122;28;20164;-68
2023/07/28 02:38:21;;;;;;;3.15;1.20;;;17.30;99.90;;;;;;4999406;28;20022;-68
2023/07/28 02:40:46;;;;;;;5.47;1.35;;;17.30;99.90;;;;;;4999831;28;20033;-68
2023/07/28 02:43:12;;;;;;;1.83;1.20;;;17.30;99.90;;;;;;4998877;28;20023;-68
2023/07/28 02:45:37;;;;;;;2.45;1.25;;;17.30;99.90;;;;;;4998843;28;20026;-68
2023/07/28 02:48:03;;;;;;;3.05;1.55;;;17.30;99.90;;;;;;4998917;28;20058;-68
2023/07/28 02:50:29;;;;;;;3.25;1.45;;;17.30;99.90;;;;;;4998666;28;20057;-68
2023/07/28 02:52:54;;;;;;;2.28;1.45;;;17.30;99.90;;;;;;4999821;28;20061;-68
2023/07/28 02:55:20;;;;;;;4.20;1.75;;;17.20;99.90;;;;;;4998624;28;20085;-68
2023/07/28 02:57:45;;;;;;;2.13;1.20;;;17.10;99.90;;;;;;4998723;28;20034;-68
2023/07/28 03:00:11;;;;;;;2.55;1.55;;;17.10;99.90;;;;;;4998359;28;20053;-68
2023/07/28 03:02:37;;;;;;;2.25;1.13;;;17.10;99.90;;;;;;4998588;28;20109;-68
2023/07/28 03:05:03;;;;;;;2.67;1.60;;;17.20;99.90;;;;;;4999312;28;20049;-68
2023/07/28 03:07:30;;;;;;;1.60;1.20;;;17.20;99.90;;;;;;4999382;28;20027;-68
2023/07/28 03:09:55;;;;;;;3.55;1.60;;;17.20;99.90;;;;;;4999866;28;20015;-68
2023/07/28 03:12:21;;;;;;;2.63;1.67;;;17.20;99.90;;;;;;4999349;28;20018;-68
2023/07/28 03:14:46;;;;;;;3.30;2.00;;;17.20;99.90;;;;;;4998466;28;20038;-68
2023/07/28 03:17:12;;;;;;;2.38;1.25;;;17.10;99.90;;;;;;4999125;28;20030;-68
2023/07/28 03:19:37;;;;;;;3.58;1.67;;;17.20;99.90;;;;;;4998233;28;20030;-68
2023/07/28 03:22:03;;;;;;;3.65;1.70;;;17.10;99.90;;;;;;4998508;28;20049;-68
2023/07/28 03:24:29;;;;;;;3.63;1.90;;;17.10;99.90;;;;;;4998114;28;20026;-68
2023/07/28 03:26:54;;;;;;;4.00;1.50;;;17.00;99.90;;;;;;4998088;28;20018;-68
2023/07/28 03:29:20;;;;;;;1.50;1.10;;;17.10;99.90;;;;;;4999292;28;20109;-68
2023/07/28 03:31:46;;;;;;;2.55;1.52;;;17.10;99.90;;;;;;4997951;28;20046;-68
2023/07/28 03:34:11;;;;;;;1.92;1.15;;;17.10;99.90;;;;;;4998044;28;20023;-68
2023/07/28 03:36:37;;;;;;;1.95;1.13;;;17.10;99.90;;;;;;4998856;28;20022;-68
2023/07/28 03:39:02;;;;;;;3.42;1.30;;;17.10;99.90;;;;;;4997796;28;20100;-68
2023/07/28 03:41:28;;;;;;;1.63;1.20;;;17.20;99.90;;;;;;4997945;28;20033;-68
2023/07/28 03:43:54;;;;;;;3.05;1.20;;;17.10;99.90;;;;;;4998586;28;20113;-68
2023/07/28 03:46:19;;;;;;;2.63;1.38;;;17.10;99.90;;;;;;4999019;28;20023;-68
2023/07/28 03:48:45;;;;;;;1.70;1.20;;;17.10;99.90;;;;;;4997966;28;20161;-68
2023/07/28 03:51:10;;;;;;;1.73;1.60;;;17.10;99.90;;;;;;4998498;28;20113;-68
2023/07/28 03:53:36;;;;;;;8.57;1.80;;;17.10;99.90;;;;;;4998097;28;20076;-68
2023/07/28 03:56:02;;;;;;;2.83;1.50;;;17.10;99.90;;;;;;4997531;28;20022;-68
2023/07/28 03:58:28;;;;;;;3.25;1.30;;;17.10;99.90;;;;;;4997634;28;20080;-68
2023/07/28 04:00:53;;;;;;;3.13;1.17;;;17.10;99.90;;;;;;4998423;28;20113;-68
2023/07/28 04:03:20;;;;;;;2.53;1.20;;;17.10;99.90;;;;;;4998068;28;20030;-68
2023/07/28 04:05:45;;;;;;;6.90;1.65;;;17.10;99.90;;;;;;4998238;28;20089;-68
2023/07/28 04:08:11;;;;;;;1.33;1.20;;;17.00;99.90;;;;;;4997641;28;20117;-68
2023/07/28 04:10:36;;;;;;;1.63;1.25;;;17.00;99.90;;;;;;4996948;28;20022;-68
2023/07/28 04:13:02;;;;;;;2.17;1.42;;;17.00;99.90;;;;;;4997434;28;20018;-68
2023/07/28 04:15:27;;;;;;;3.85;1.45;;;17.00;99.90;;;;;;4997212;28;20029;-68
2023/07/28 04:17:53;;;;;;;3.55;1.48;;;17.00;99.90;;;;;;4997500;28;20128;-68
2023/07/28 04:20:18;;;;;;;1.23;0.65;;;17.00;99.90;;;;;;4997198;28;20029;-68
2023/07/28 04:22:44;;;;;;;2.45;1.33;;;17.00;99.90;;;;;;4997088;28;20030;-68
2023/07/28 04:25:10;;;;;;;2.95;1.17;;;17.00;99.90;;;;;;4996970;28;20030;-68
2023/07/28 04:27:35;;;;;;;2.75;1.40;;;17.00;99.90;;;;;;4998293;28;20068;-68
2023/07/28 04:30:01;;;;;;;2.70;1.40;;;17.10;99.90;;;;;;4996900;28;20105;-68
2023/07/28 04:32:26;;;;;;;1.90;1.30;;;17.10;99.90;;;;;;4996971;28;20037;-68
2023/07/28 04:34:53;;;;;;;1.30;1.10;;;17.20;99.90;;;;;;4996865;28;20037;-68
2023/07/28 04:37:19;;;;;;;3.70;1.20;;;17.20;99.90;;;;;;4997764;28;20022;-68
2023/07/28 04:39:44;;;;;;;1.50;1.10;;;17.20;99.90;;;;;;4997667;28;20033;-68
2023/07/28 04:42:10;;;;;;;1.95;1.27;;;17.20;99.90;;;;;;4996857;28;20065;-68
2023/07/28 04:44:37;;;;;;;1.20;1.10;;;17.20;99.90;;;;;;4996777;28;20034;-68
2023/07/28 04:47:03;;;;;;;1.10;0.90;;;17.30;99.90;;;;;;4997651;28;20029;-68
2023/07/28 04:49:28;;;;;;;1.20;0.80;;;17.30;99.90;;;;;;4998001;28;20022;-68
2023/07/28 04:51:54;;;;;;;1.52;0.90;;;17.30;99.90;;;;;;4996798;28;20125;-68
2023/07/28 04:54:19;;;;;;;4.10;1.35;;;17.30;99.90;;;;;;4996587;28;20024;-68
2023/07/28 04:56:45;;;;;;;3.35;1.25;;;17.40;99.90;;;;;;4996740;28;20018;-68
2023/07/28 04:59:11;;;;;;;1.92;0.90;;;17.40;99.90;;;;;;4996583;28;20089;-68
2023/07/28 05:01:36;;;;;;;2.92;0.88;;;17.40;99.90;;;;;;4997534;28;20068;-68
2023/07/28 05:04:02;;;;;;;0.60;0.50;;;17.50;99.90;;;;;;4996591;28;20033;-68
2023/07/28 05:06:28;;;;;;;1.88;0.57;;;17.60;99.90;;;;;;4997270;28;20022;-68
2023/07/28 05:08:53;;;;;;;1.65;0.75;;;17.70;99.90;;;;;;4997231;28;20105;-68
2023/07/28 05:11:19;;;;;;;1.15;0.80;;;17.90;99.90;;;;;;4996498;28;20022;-68
2023/07/28 05:13:44;;;;;;;2.70;0.80;;;17.80;99.90;;;;;;5020533;23;20042;-69
2023/07/28 05:16:10;;;;;;;1.02;0.60;;;17.70;99.90;;;;;;4996423;28;20042;-70
2023/07/28 05:18:36;;;;;;;0.90;0.70;;;17.80;99.90;;;;;;4997442;28;20039;-71
2023/07/28 05:21:02;;;;;;;1.25;0.60;;;17.80;99.90;;;;;;4996392;28;20109;-77
2023/07/28 05:23:28;;;;;;;0.75;0.50;;;17.90;99.90;;;;;;5015311;28;20072;-77
2023/07/28 05:25:53;;;;;;;2.08;0.70;;;17.80;99.90;;;;;;5001277;28;20034;-77
2023/07/28 05:28:19;;;;;;;1.00;0.80;;;17.90;99.90;;;;;;5000064;28;20022;-69
2023/07/28 05:30:44;;;;;;;0.65;0.50;;;17.90;99.90;;;;;;5001444;28;20033;-69
2023/07/28 05:33:10;;;;;;;2.13;0.70;;;17.90;99.90;;;;;;5000096;28;20325;-69
2023/07/28 05:35:35;;;;;;;1.63;0.70;;;17.90;99.90;;;;;;5001285;28;20030;-77
2023/07/28 05:38:01;;;;;;;2.58;0.75;;;17.90;99.90;;;;;;5000400;28;20160;-68
2023/07/28 05:40:26;;;;;;;0.85;0.50;;;18.00;99.90;;;;;;5000067;28;20022;-70
2023/07/28 05:42:52;;;;;;;3.35;0.73;;;18.00;99.90;;;;;;5000324;28;20022;-71
2023/07/28 05:45:18;;;;;;;1.98;0.70;;;18.10;99.90;;;;;;4999976;28;20038;-70
2023/07/28 05:47:43;;;;;;;5.43;0.70;;;18.20;99.90;;;;;;4999828;28;20030;-70
2023/07/28 05:50:09;;;;;;;1.60;0.77;;;18.20;99.90;;;;;;5000246;28;20023;-70
2023/07/28 05:52:34;;;;;;;3.08;0.52;;;18.10;99.90;;;;;;4999878;28;20026;-67
2023/07/28 05:55:00;;;;;;;0.70;0.40;;;18.00;99.90;;;;;;5000106;28;20032;-67
2023/07/28 05:57:25;;;;;;;2.53;0.65;;;18.10;99.90;;;;;;4999766;28;20033;-70
2023/07/28 05:59:51;;;;;;;2.90;0.80;;;18.10;99.90;;;;;;5000049;28;20101;-69
2023/07/28 06:02:16;;;;;;;2.10;0.68;;;18.10;99.90;;;;;;5000225;28;20034;-69
2023/07/28 06:04:42;;;;;;;3.28;0.70;;;18.10;99.90;;;;;;4999666;28;20076;-69
2023/07/28 06:07:07;;;;;;;0.95;0.47;;;18.20;99.90;;;;;;4999800;28;20062;-69
2023/07/28 06:09:33;;;;;;;3.15;0.60;;;18.30;99.90;;;;;;4999853;28;20156;-67
2023/07/28 06:11:59;;;;;;;1.20;0.60;;;18.30;99.90;;;;;;5000485;28;20031;-67
2023/07/28 06:14:24;;;;;;;3.42;0.70;;;18.30;99.90;;;;;;4999781;28;20037;-67
2023/07/28 06:16:50;;;;;;;2.42;0.60;;;18.20;99.90;;;;;;5000241;28;20026;-67
2023/07/28 06:19:16;;;;;;;5.50;1.30;;;18.20;99.90;;;;;;4999495;28;20031;-67
2023/07/28 06:21:42;;;;;;;5.05;0.52;;;18.30;99.90;;;;;;4999957;28;20026;-67
2023/07/28 06:24:07;;;;;;;1.90;0.70;;;18.30;99.90;;;;;;4999609;28;20049;-69
2023/07/28 06:26:33;;;;;;;4.43;0.52;;;18.30;99.90;;;;;;4999352;28;20062;-69
2023/07/28 06:28:58;;;;;;;1.77;0.50;;;18.30;99.90;;;;;;4999546;28;20061;-69
2023/07/28 06:31:24;;;;;;;0.57;0.40;;;18.40;99.90;;;;;;4999548;28;20036;-69
2023/07/28 06:33:50;;;;;;;1.95;0.90;;;18.50;99.90;;;;;;4999311;28;20023;-69
2023/07/28 06:36:15;;;;;;;1.30;0.60;;;18.60;99.90;;;;;;4999145;28;20077;-76
2023/07/28 06:38:42;;;;;;;4.45;0.52;;;18.70;99.90;;;;;;4999166;28;20027;-77
2023/07/28 06:41:08;;;;;;;0.40;0.40;;;18.60;99.90;;;;;;4999023;28;20117;-67
2023/07/28 06:43:34;;;;;;;8.73;0.65;;;18.70;99.90;;;;;;4998764;28;20030;-67
2023/07/28 06:45:59;;;;;;;2.92;0.80;;;18.60;99.90;;;;;;4999023;28;20018;-67
2023/07/28 06:48:25;;;;;;;0.70;0.70;;;18.60;99.90;;;;;;4999038;28;20076;-69
2023/07/28 06:50:50;;;;;;;2.45;0.70;;;18.60;99.90;;;;;;4998866;28;20037;-69
2023/07/28 06:53:16;;;;;;;3.58;0.70;;;18.70;99.90;;;;;;4998757;28;20113;-67
2023/07/28 06:55:43;;;;;;;1.73;0.70;;;18.70;99.90;;;;;;4998825;28;20022;-67
2023/07/28 06:58:09;;;;;;;1.02;0.70;;;18.80;99.90;;;;;;4998744;28;20026;-67
2023/07/28 07:00:35;;;;;;;2.67;0.40;;;18.90;99.90;;;;;;4999494;28;20101;-67
2023/07/28 07:03:00;;;;;;;0.40;0.40;;;18.80;99.90;;;;;;4999070;28;20045;-67
2023/07/28 07:05:26;;;;;;;1.45;0.35;;;18.80;99.90;;;;;;4999336;28;20038;-70
2023/07/28 07:07:52;;;;;;;0.50;0.50;;;18.90;99.90;;;;;;4998804;28;20030;-71
2023/07/28 07:10:18;;;;;;;1.10;0.80;;;18.90;99.90;;;;;;4998591;28;20037;-71
2023/07/28 07:12:43;;;;;;;2.97;0.82;;;18.80;99.90;;;;;;4998422;28;20023;-71
2023/07/28 07:15:11;;;;;;;0.43;0.40;;;18.90;99.90;;;;;;4998127;28;20026;-71
2023/07/28 07:17:37;;;;;;;0.63;0.30;;;18.90;99.90;;;;;;4999277;28;20031;-71
2023/07/28 07:20:03;;;;;;;0.40;0.40;;;18.90;99.90;;;;;;4998483;28;20033;-71
2023/07/28 07:22:28;;;;;;;1.00;0.47;;;19.00;99.90;;;;;;4998565;28;20034;-71
2023/07/28 07:24:56;;;;;;;1.02;0.50;;;19.10;99.90;;;;;;4998233;28;20080;-71
2023/07/28 07:27:21;;;;;;;1.50;0.50;;;19.10;99.90;;;;;;4998877;28;20026;-71
2023/07/28 07:29:47;;;;;;;3.53;0.55;;;19.10;99.90;;;;;;4998532;28;20110;-71
2023/07/28 07:32:15;;;;;;;1.35;0.35;;;19.10;99.90;;;;;;4998507;28;20105;-71
2023/07/28 07:34:41;;;;;;;1.00;0.40;;;19.20;99.90;;;;;;4998257;28;20027;-71
2023/07/28 07:37:06;;;;;;;1.92;1.30;;;19.20;99.90;;;;;;4998464;28;20032;-71
2023/07/28 07:39:33;;;;;;;3.05;0.40;;;19.20;99.90;;;;;;4998267;28;20049;-71
2023/07/28 07:41:59;;;;;;;3.13;0.40;;;19.30;99.90;;;;;;4998124;28;20109;-71
2023/07/28 07:44:25;;;;;;;1.83;1.02;;;19.30;99.90;;;;;;4997682;28;20050;-71
2023/07/28 07:46:50;;;;;;;6.57;0.60;;;19.30;99.90;;;;;;4997285;28;20120;-71
2023/07/28 07:49:16;;;;;;;2.83;1.50;;;19.40;99.90;;;;;;4998692;28;20088;-71
2023/07/28 07:51:41;;;;;;;1.05;0.70;;;19.40;99.90;;;;;;4998026;28;20107;-71
2023/07/28 07:54:07;;;;;;;0.63;0.40;;;19.40;99.90;;;;;;4998056;28;20018;-71
2023/07/28 07:56:32;;;;;;;3.03;0.47;;;19.40;99.90;;;;;;4998296;28;20041;-71
2023/07/28 07:58:58;;;;;;;2.13;0.45;;;19.40;99.90;;;;;;4997881;28;20038;-71
2023/07/28 08:01:24;;;;;;;2.28;1.38;;;19.50;99.90;;;;;;4997777;28;20041;-72
2023/07/28 08:03:49;;;;;;;2.92;0.70;;;19.60;99.90;;;;;;4997417;28;20026;-70
2023/07/28 08:06:15;;;;;;;1.25;0.85;;;19.60;99.90;;;;;;4997322;28;20077;-70
2023/07/28 08:08:41;;;;;;;4.00;0.90;;;19.60;99.90;;;;;;4997930;28;20101;-68
2023/07/28 08:11:07;;;;;;;0.82;0.38;;;19.60;99.90;;;;;;4998131;28;20026;-68
2023/07/28 08:13:33;;;;;;;1.13;0.85;;;19.70;99.90;;;;;;4997202;28;20031;-68
2023/07/28 08:15:58;;;;;;;0.93;0.50;;;19.80;99.90;;;;;;4997630;28;20033;-68
2023/07/28 08:18:24;;;;;;;2.22;0.35;;;19.90;99.90;;;;;;4997746;28;20062;-68
2023/07/28 08:20:49;;;;;;;1.85;0.30;;;19.90;99.90;;;;;;4997287;28;20042;-68
2023/07/28 08:23:15;;;;;;;8.50;1.70;;;19.90;99.90;;;;;;4997109;28;20026;-70
2023/07/28 08:25:40;;;;;;;0.47;0.43;;;19.90;99.90;;;;;;4997501;28;20045;-71
2023/07/28 08:28:06;;;;;;;0.40;0.40;;;20.00;99.90;;;;;;4996929;28;20109;-71
2023/07/28 08:30:32;;;;;;;2.78;0.20;;;20.00;99.90;;;;;;4996923;28;20092;-72
2023/07/28 08:32:58;;;;;;;0.98;0.43;;;20.00;99.90;;;;;;4997809;28;20072;-70
2023/07/28 08:35:23;;;;;;;0.60;0.40;;;20.00;99.90;;;;;;4997666;28;20022;-70
2023/07/28 08:37:49;;;;;;;0.45;0.30;;;20.10;99.90;;;;;;4997717;28;20026;-74
2023/07/28 08:40:15;;;;;;;0.40;0.40;;;20.00;99.90;;;;;;4997195;28;20026;-73
2023/07/28 08:42:41;;;;;;;1.02;0.30;;;20.00;99.90;;;;;;4997575;28;20036;-73
2023/07/28 08:45:10;;;;;;;0.30;0.30;;;20.00;99.90;;;;;;4997024;28;20034;-73
2023/07/28 08:47:36;;;;;;;1.05;0.40;;;20.00;99.90;;;;;;4996963;28;20118;-73
2023/07/28 08:50:03;;;;;;;0.55;0.43;;;20.00;99.90;;;;;;4996855;28;20046;-75
2023/07/28 08:52:28;;;;;;;0.80;0.50;;;20.10;99.90;;;;;;4997017;28;20030;-73
2023/07/28 08:54:54;;;;;;;1.80;0.70;;;20.10;99.90;;;;;;4997241;28;20026;-74
2023/07/28 08:57:20;;;;;;;0.60;0.60;;;20.10;99.90;;;;;;4996827;28;20026;-74
2023/07/28 08:59:49;;;;;;;5.45;0.70;;;20.30;99.90;;;;;;4996691;28;20035;-75
2023/07/28 09:02:19;;;;;;;1.52;0.45;;;20.30;99.90;;;;;;4997024;28;20030;-74
2023/07/28 09:04:46;;;;;;;1.27;0.65;;;20.40;99.90;;;;;;4997197;28;20080;-68
2023/07/28 09:07:12;;;;;;;3.38;0.60;;;20.50;99.90;;;;;;4996447;28;20103;-66
2023/07/28 09:09:38;;;;;;;0.55;0.32;;;20.40;99.90;;;;;;4996837;28;20046;-68
2023/07/28 09:12:04;;;;;;;4.10;0.57;;;20.40;99.90;;;;;;4997047;28;20122;-68
2023/07/28 09:14:30;;;;;;;0.40;0.30;;;20.50;99.90;;;;;;4996643;28;20115;-68
2023/07/28 09:17:14;;;;;;;2.15;0.40;;;20.40;99.90;;;;;;4996786;28;20092;-67
2023/07/28 09:19:53;;;;;;;0.65;0.55;;;20.40;99.90;;;;;;4996446;28;20033;-75
2023/07/28 09:22:23;;;;;;;0.30;0.30;;;20.40;99.90;;;;;;4996685;28;20057;-74
2023/07/28 09:24:50;;;;;;;0.40;0.40;;;20.50;99.90;;;;;;4996583;28;20030;-74
2023/07/28 09:27:24;;;;;;;0.95;0.40;;;20.50;99.90;;;;;;4996587;28;20061;-73
2023/07/28 09:29:52;;;;;;;1.27;0.50;;;20.50;99.90;;;;;;4996579;28;20023;-74
2023/07/28 09:32:37;;;;;;;2.67;0.47;;;20.50;99.90;;;;;;4996792;28;20026;-75
2023/07/28 09:35:09;;;;;;;1.02;0.40;;;20.50;99.90;;;;;;4996689;28;20029;-74
2023/07/28 09:37:38;;;;;;;0.55;0.40;;;20.60;99.90;;;;;;4997133;28;20081;-75
2023/07/28 09:40:04;;;;;;;1.35;0.40;;;20.80;99.90;;;;;;4996562;28;20023;-75
2023/07/28 09:42:31;;;;;;;1.42;0.40;;;21.00;99.90;;;;;;4996555;28;20026;-75
2023/07/28 09:44:57;;;;;;;0.50;0.40;;;21.20;99.90;;;;;;4996454;28;20022;-71
2023/07/28 09:47:24;;;;;;;0.45;0.45;;;21.30;99.90;;;;;;4996522;28;20145;-71
2023/07/28 09:49:52;;;;;;;2.65;0.43;;;21.30;99.90;;;;;;4996164;28;20019;-72
2023/07/28 09:52:19;;;;;;;0.77;0.50;;;21.40;99.90;;;;;;4996957;28;20081;-72
2023/07/28 09:54:48;;;;;;;4.05;0.50;;;21.40;99.90;;;;;;4996449;28;20026;-71
2023/07/28 09:57:19;;;;;;;0.50;0.50;;;21.40;99.90;;;;;;4996163;28;20026;-70
2023/07/28 09:59:47;;;;;;;0.40;0.40;;;21.50;99.90;;;;;;4996239;28;20030;-70
2023/07/28 10:02:12;;;;;;;0.90;0.40;;;21.60;99.90;;;;;;4996228;28;20031;-73
2023/07/28 10:04:39;;;;;;;1.02;0.73;;;21.70;99.90;;;;;;4996415;28;20030;-73
2023/07/28 10:07:05;;;;;;;0.65;0.63;;;21.70;99.90;;;;;;4996402;28;20117;-73
2023/07/28 10:09:33;;;;;;;0.47;0.30;;;21.70;99.90;;;;;;4997156;28;20058;-74
2023/07/28 10:11:59;;;;;;;0.50;0.50;;;21.70;99.90;;;;;;4999508;28;20061;-68
2023/07/28 10:14:30;;;;;;;2.03;0.73;;;21.70;99.90;;;;;;4999851;28;20057;-67
2023/07/28 10:16:58;;;;;;;2.22;1.40;;;21.70;99.90;;;;;;4999742;28;20061;-67
2023/07/28 10:19:27;;;;;;;2.05;0.90;;;21.80;99.90;;;;;;4999782;28;20088;-74
2023/07/28 10:22:18;;;;;;;1.10;1.00;;;21.90;99.90;;;;;;4999806;28;20030;-76
2023/07/28 10:24:52;;;;;;;1.05;0.57;;;22.00;99.90;;;;;;4999564;28;20077;-76
2023/07/28 10:27:31;;;;;;;0.40;0.40;;;22.10;99.90;;;;;;4999444;28;20066;-77
2023/07/28 10:30:01;;;;;;;0.98;0.38;;;22.00;99.90;;;;;;5000249;28;20050;-75
2023/07/28 10:32:38;;;;;;;7.10;0.80;;;22.00;99.90;;;;;;4999313;28;20018;-75
2023/07/28 10:35:24;;;;;;;3.13;1.00;;;21.90;99.90;;;;;;4999892;28;20022;-75
2023/07/28 10:37:50;;;;;;;4.07;0.57;;;22.00;99.90;;;;;;4999964;28;20029;-77
2023/07/28 10:40:35;;;;;;;0.80;0.30;;;22.10;99.90;;;;;;4999237;28;20034;-76
2023/07/28 10:43:02;;;;;;;2.55;0.73;;;22.10;99.90;;;;;;4999357;28;20030;-70
2023/07/28 10:45:30;;;;;;;1.15;0.52;;;22.10;99.90;;;;;;4999147;28;20026;-69
2023/07/28 10:47:59;;;;;;;1.95;0.50;;;22.10;99.90;;;;;;4999672;28;20026;-70
2023/07/28 10:50:27;;;;;;;1.08;0.73;;;22.10;99.90;;;;;;4999640;28;20018;-71
2023/07/28 10:52:52;;;;;;;1.30;0.70;;;22.20;99.90;;;;;;4999650;28;20033;-71
2023/07/28 10:55:26;;;;;;;0.52;0.52;;;22.20;99.90;;;;;;4999526;28;20026;-72
2023/07/28 10:57:53;;;;;;;0.95;0.50;;;22.30;99.90;;;;;;4998957;28;20062;-72
2023/07/28 11:00:22;;;;;;;3.58;0.57;;;22.40;99.90;;;;;;4998678;28;20037;-72
2023/07/28 11:02:57;;;;;;;3.50;0.85;;;22.40;99.90;;;;;;4998885;28;20032;-68
2023/07/28 11:05:28;;;;;;;1.48;1.38;;;22.50;99.90;;;;;;4999667;28;20026;-68
2023/07/28 11:07:58;;;;;;;1.73;1.20;;;22.70;99.90;;;;;;4998820;28;20027;-68
2023/07/28 11:10:25;;;;;;;0.70;0.50;;;22.90;99.90;;;;;;4998810;28;20030;-68
2023/07/28 11:12:52;;;;;;;1.17;0.70;;;23.00;99.90;;;;;;4999309;28;20025;-68
2023/07/28 11:15:19;;;;;;;0.90;0.90;;;23.10;99.90;;;;;;4998691;28;20048;-70
2023/07/28 11:17:49;;;;;;;1.88;1.00;;;23.30;99.90;;;;;;4999106;28;20026;-76
2023/07/28 11:20:27;;;;;;;0.63;0.55;;;24.10;99.90;;;;;;4998721;28;20027;-76
2023/07/28 11:22:55;;;;;;;0.35;0.35;;;24.80;99.90;;;;;;4998591;28;20061;-75
2023/07/28 11:25:21;;;;;;;0.80;0.32;;;24.80;99.90;;;;;;4998454;28;20038;-75
2023/07/28 11:27:47;;;;;;;0.28;0.28;;;24.60;99.90;;;;;;4998450;28;20032;-70
2023/07/28 11:30:15;;;;;;;0.57;0.40;;;24.40;99.90;;;;;;4998229;28;20090;-71
2023/07/28 11:32:43;;;;;;;0.20;0.20;;;24.40;99.90;;;;;;4998039;28;20050;-68
2023/07/28 11:35:14;;;;;;;1.08;0.20;;;24.30;99.90;;;;;;4998383;28;20030;-68
2023/07/28 11:37:43;;;;;;;1.75;0.30;;;24.10;99.90;;;;;;4998748;28;20103;-71
2023/07/28 11:40:13;;;;;;;0.32;0.30;;;24.10;99.90;;;;;;4998782;28;20041;-68
2023/07/28 11:42:40;;;;;;;0.30;0.30;;;24.30;99.90;;;;;;4997877;28;20030;-68
2023/07/28 11:45:07;;;;;;;0.30;0.20;;;24.50;99.90;;;;;;4998057;28;20081;-71
2023/07/28 11:47:33;;;;;;;0.93;0.30;;;24.70;99.90;;;;;;4997919;28;20031;-72
2023/07/28 11:50:00;;;;;;;0.30;0.30;;;24.80;99.90;;;;;;4998285;28;20033;-72
2023/07/28 11:52:32;;;;;;;0.80;0.63;;;25.10;99.90;;;;;;4998087;28;20023;-72
2023/07/28 11:55:00;;;;;;;1.00;0.35;;;25.40;99.90;;;;;;4998325;28;20054;-68
2023/07/28 11:57:26;;;;;;;0.50;0.40;;;25.40;99.90;;;;;;4997485;28;20030;-68
2023/07/28 11:59:53;;;;;;;0.40;0.40;;;25.40;99.90;;;;;;4997462;28;20026;-70
2023/07/28 12:02:25;;;;;;;0.90;0.70;;;25.40;99.90;;;;;;4997689;28;20034;-71
2023/07/28 12:04:53;;;;;;;0.88;0.50;;;25.50;99.90;;;;;;4998154;28;20026;-72
2023/07/28 12:07:19;;;;;;;0.40;0.40;;;25.50;99.90;;;;;;4997623;28;20057;-68
2023/07/28 12:09:54;;;;;;;0.30;0.30;;;25.40;99.90;;;;;;4997403;28;20022;-68
2023/07/28 12:12:29;;;;;;;1.45;0.47;;;25.30;99.90;;;;;;4997546;28;20054;-72
2023/07/28 12:15:04;;;;;;;0.47;0.47;;;25.10;99.90;;;;;;4997365;28;20069;-68
2023/07/28 12:17:30;;;;;;;2.95;0.68;;;24.90;99.90;;;;;;4998142;28;20022;-71
2023/07/28 12:20:00;;;;;;;0.43;0.43;;;24.80;99.90;;;;;;4998090;28;20090;-71
2023/07/28 12:22:27;;;;;;;1.38;0.43;;;24.90;99.90;;;;;;4997963;28;20030;-72
2023/07/28 12:24:53;;;;;;;0.50;0.50;;;25.10;99.90;;;;;;4997509;28;20022;-72
2023/07/28 12:27:20;;;;;;;0.50;0.47;;;25.50;99.90;;;;;;4997246;28;20026;-72
2023/07/28 12:29:46;;;;;;;1.42;0.40;;;25.90;99.90;;;;;;4996981;28;20026;-72
2023/07/28 12:32:11;;;;;;;0.70;0.70;;;26.10;99.90;;;;;;4996967;28;20038;-71
2023/07/28 12:34:37;;;;;;;1.42;0.50;;;26.30;99.90;;;;;;4997470;28;20018;-71
2023/07/28 12:37:03;;;;;;;1.33;1.15;;;26.20;99.90;;;;;;4997609;28;20027;-71
2023/07/28 12:39:29;;;;;;;2.00;0.50;;;26.20;99.90;;;;;;4997670;28;20026;-71
2023/07/28 12:41:54;;;;;;;0.40;0.40;;;26.50;99.90;;;;;;4996922;28;20026;-77
2023/07/28 12:44:20;;;;;;;0.40;0.40;;;26.80;99.90;;;;;;4997082;28;20026;-77
2023/07/28 12:46:46;;;;;;;1.98;0.35;;;26.70;99.90;;;;;;4997481;28;20022;-72